createdAt,value
2022-11-23T00:01:23.638Z,62.39
2022-11-23T00:03:53.916Z,61.95
2022-11-23T00:06:20.955Z,62.27
2022-11-23T00:08:47.991Z,62.83
2022-11-23T00:11:14.463Z,63.17
2022-11-23T00:13:41.159Z,63.20
2022-11-23T00:16:09.388Z,63.18
2022-11-23T00:18:35.814Z,63.00
2022-11-23T00:21:11.139Z,63.19
2022-11-23T00:23:37.895Z,63.06
2022-11-23T00:26:04.851Z,63.06
2022-11-23T00:28:31.689Z,62.97
2022-11-23T00:30:58.283Z,62.60
2022-11-23T00:33:24.842Z,62.79
2022-11-23T00:36:03.803Z,62.86
2022-11-23T00:38:30.615Z,62.55
2022-11-23T00:41:02.267Z,62.46
2022-11-23T00:43:29.299Z,62.24
2022-11-23T00:46:12.976Z,62.61
2022-11-23T00:48:46.144Z,62.57
2022-11-23T00:51:16.131Z,62.34
2022-11-23T00:53:43.114Z,61.79
2022-11-23T00:56:10.939Z,61.97
2022-11-23T00:58:40.023Z,62.04
2022-11-23T01:01:08.458Z,61.99
2022-11-23T01:03:39.941Z,61.88
2022-11-23T01:06:12.016Z,62.25
2022-11-23T01:08:39.122Z,62.45
2022-11-23T01:11:11.041Z,62.70
2022-11-23T01:13:39.195Z,63.01
2022-11-23T01:16:28.192Z,63.14
2022-11-23T01:19:04.111Z,62.58
2022-11-23T01:21:31.564Z,62.43
2022-11-23T01:23:59.436Z,62.78
2022-11-23T01:26:26.170Z,62.95
2022-11-23T01:28:52.659Z,62.90
2022-11-23T01:31:23.603Z,62.77
2022-11-23T01:33:58.245Z,63.21
2022-11-23T01:36:28.816Z,62.81
2022-11-23T01:38:55.318Z,62.89
2022-11-23T01:41:27.049Z,63.27
2022-11-23T01:43:53.731Z,63.39
2022-11-23T01:46:20.256Z,63.40
2022-11-23T01:49:06.301Z,63.51
2022-11-23T01:51:44.932Z,63.48
2022-11-23T01:54:15.909Z,63.36
2022-11-23T01:56:46.127Z,63.57
2022-11-23T01:59:16.063Z,63.89
2022-11-23T02:01:43.076Z,64.01
2022-11-23T02:04:12.859Z,63.87
2022-11-23T02:06:42.770Z,63.84
2022-11-23T02:09:09.264Z,63.58
2022-11-23T02:11:35.734Z,63.82
2022-11-23T02:14:02.254Z,63.99
2022-11-23T02:16:29.667Z,63.81
2022-11-23T02:18:56.128Z,64.06
2022-11-23T02:21:22.603Z,64.11
2022-11-23T02:24:01.568Z,64.58
2022-11-23T02:26:30.603Z,64.83
2022-11-23T02:29:12.315Z,64.61
2022-11-23T02:31:38.837Z,63.94
2022-11-23T02:34:05.301Z,63.74
2022-11-23T02:36:41.013Z,64.08
2022-11-23T02:39:31.427Z,64.18
2022-11-23T02:41:58.304Z,63.54
2022-11-23T02:44:45.917Z,63.39
2022-11-23T02:47:13.856Z,63.20
2022-11-23T02:49:41.341Z,63.51
2022-11-23T02:52:08.572Z,63.92
2022-11-23T02:54:35.124Z,64.21
2022-11-23T02:57:01.733Z,64.52
2022-11-23T02:59:31.825Z,64.41
2022-11-23T03:01:59.912Z,64.60
2022-11-23T03:04:28.116Z,64.52
2022-11-23T03:06:55.137Z,64.06
2022-11-23T03:09:22.131Z,64.21
2022-11-23T03:11:48.749Z,64.39
2022-11-23T03:14:15.619Z,64.34
2022-11-23T03:16:47.900Z,64.35
2022-11-23T03:19:16.754Z,64.07
2022-11-23T03:21:43.797Z,64.02
2022-11-23T03:24:10.336Z,64.14
2022-11-23T03:26:37.171Z,63.97
2022-11-23T03:29:09.034Z,63.95
2022-11-23T03:31:37.304Z,63.41
2022-11-23T03:34:04.978Z,62.61
2022-11-23T03:36:32.078Z,62.66
2022-11-23T03:38:59.673Z,63.15
2022-11-23T03:41:58.367Z,63.20
2022-11-23T03:44:30.116Z,62.96
2022-11-23T03:46:56.959Z,62.59
2022-11-23T03:49:24.414Z,62.67
2022-11-23T03:51:52.207Z,62.43
2022-11-23T03:54:18.816Z,62.22
2022-11-23T03:56:45.454Z,62.19
2022-11-23T03:59:12.049Z,62.78
2022-11-23T04:01:38.725Z,62.96
2022-11-23T04:04:08.190Z,63.04
2022-11-23T04:06:54.913Z,62.90
2022-11-23T04:09:25.860Z,62.84
2022-11-23T04:12:10.868Z,62.72
2022-11-23T04:14:38.193Z,62.69
2022-11-23T04:17:04.860Z,62.94
2022-11-23T04:19:32.751Z,62.96
2022-11-23T04:21:59.820Z,63.25
2022-11-23T04:24:28.035Z,63.38
2022-11-23T04:26:56.226Z,63.48
2022-11-23T04:29:23.720Z,63.52
2022-11-23T04:31:52.592Z,63.39
2022-11-23T04:34:19.412Z,63.74
2022-11-23T04:36:46.899Z,63.65
2022-11-23T04:39:13.897Z,63.78
2022-11-23T04:42:00.652Z,64.17
2022-11-23T04:44:27.109Z,64.05
2022-11-23T04:46:58.659Z,63.39
2022-11-23T04:49:25.540Z,63.34
2022-11-23T04:51:52.128Z,63.02
2022-11-23T04:54:19.504Z,63.18
2022-11-23T04:56:49.979Z,63.68
2022-11-23T04:59:17.143Z,63.71
2022-11-23T05:01:43.816Z,63.72
2022-11-23T05:04:29.372Z,63.87
2022-11-23T05:06:57.252Z,63.29
2022-11-23T05:09:24.865Z,62.65
2022-11-23T05:12:00.571Z,63.24
2022-11-23T05:14:27.721Z,63.38
2022-11-23T05:16:54.470Z,62.98
2022-11-23T05:19:21.205Z,63.13
2022-11-23T05:21:48.655Z,63.17
2022-11-23T05:24:15.807Z,63.43
2022-11-23T05:26:50.876Z,63.97
2022-11-23T05:29:21.555Z,64.00
2022-11-23T05:31:48.615Z,64.17
2022-11-23T05:34:15.661Z,64.15
2022-11-23T05:36:45.575Z,63.95
2022-11-23T05:39:12.719Z,63.40
2022-11-23T05:41:39.415Z,63.50
2022-11-23T05:44:14.411Z,63.91
2022-11-23T05:46:40.964Z,63.83
2022-11-23T05:49:09.432Z,63.71
2022-11-23T05:51:37.137Z,63.98
2022-11-23T05:54:03.808Z,63.60
2022-11-23T05:56:40.425Z,63.10
2022-11-23T05:59:14.700Z,63.21
2022-11-23T06:01:43.587Z,63.10
2022-11-23T06:04:12.853Z,63.22
2022-11-23T06:06:42.857Z,63.73
2022-11-23T06:09:10.663Z,64.11
2022-11-23T06:11:38.735Z,63.55
2022-11-23T06:14:14.004Z,63.58
2022-11-23T06:16:41.312Z,63.40
2022-11-23T06:19:25.679Z,63.42
2022-11-23T06:21:52.316Z,63.69
2022-11-23T06:24:19.770Z,63.54
2022-11-23T06:26:51.938Z,63.31
2022-11-23T06:29:19.892Z,63.20
2022-11-23T06:31:46.642Z,62.68
2022-11-23T06:34:13.691Z,62.61
2022-11-23T06:36:40.837Z,62.72
2022-11-23T06:39:09.495Z,62.85
2022-11-23T06:41:36.092Z,62.69
2022-11-23T06:44:03.205Z,62.57
2022-11-23T06:46:36.984Z,62.10
2022-11-23T06:49:03.953Z,61.34
2022-11-23T06:51:30.592Z,61.12
2022-11-23T06:53:57.740Z,61.10
2022-11-23T06:56:24.579Z,61.53
2022-11-23T06:58:51.127Z,62.39
2022-11-23T07:01:21.035Z,61.96
2022-11-23T07:03:53.577Z,61.50
2022-11-23T07:06:25.464Z,61.38
2022-11-23T07:08:55.175Z,61.28
2022-11-23T07:11:28.364Z,61.23
2022-11-23T07:13:55.064Z,61.06
2022-11-23T07:16:23.942Z,61.02
2022-11-23T07:18:50.942Z,61.26
2022-11-23T07:21:17.572Z,61.88
2022-11-23T07:23:44.030Z,62.30
2022-11-23T07:26:10.748Z,62.08
2022-11-23T07:28:38.716Z,63.09
2022-11-23T07:31:05.884Z,63.99
2022-11-23T07:33:32.666Z,63.92
2022-11-23T07:36:02.622Z,63.67
2022-11-23T07:38:30.485Z,63.47
2022-11-23T07:41:00.155Z,63.06
2022-11-23T07:44:05.532Z,62.81
2022-11-23T07:46:31.983Z,62.94
2022-11-23T07:49:01.584Z,62.55
2022-11-23T07:51:29.094Z,61.45
2022-11-23T07:53:55.767Z,61.77
2022-11-23T07:56:22.507Z,63.03
2022-11-23T07:58:49.042Z,63.61
2022-11-23T08:01:17.929Z,63.44
2022-11-23T08:03:47.646Z,62.95
2022-11-23T08:06:14.481Z,62.72
2022-11-23T08:08:41.859Z,62.38
2022-11-23T08:11:08.748Z,62.39
2022-11-23T08:13:36.642Z,62.94
2022-11-23T08:16:03.177Z,62.50
2022-11-23T08:18:29.765Z,61.15
2022-11-23T08:20:59.933Z,61.70
2022-11-23T08:23:26.455Z,61.85
2022-11-23T08:25:52.991Z,61.94
2022-11-23T08:28:19.914Z,61.82
2022-11-23T08:30:46.594Z,61.66
2022-11-23T08:33:13.423Z,61.06
2022-11-23T08:35:41.479Z,61.74
2022-11-23T08:38:09.277Z,61.47
2022-11-23T08:40:36.420Z,61.77
2022-11-23T08:43:03.759Z,61.49
2022-11-23T08:45:30.431Z,61.03
2022-11-23T08:48:01.538Z,61.37
2022-11-23T08:50:31.657Z,61.12
2022-11-23T08:52:58.880Z,60.79
2022-11-23T08:55:26.367Z,62.23
2022-11-23T08:57:59.452Z,62.26
2022-11-23T09:00:26.598Z,62.77
2022-11-23T09:02:53.530Z,63.08
2022-11-23T09:05:20.588Z,63.20
2022-11-23T09:07:47.171Z,62.95
2022-11-23T09:10:18.370Z,63.21
2022-11-23T09:12:47.212Z,62.15
2022-11-23T09:15:14.295Z,62.16
2022-11-23T09:17:41.150Z,62.29
2022-11-23T09:20:09.438Z,61.23
2022-11-23T09:22:36.057Z,60.92
2022-11-23T09:25:03.278Z,61.61
2022-11-23T09:27:30.050Z,61.71
2022-11-23T09:29:56.603Z,61.68
2022-11-23T09:32:23.016Z,61.15
2022-11-23T09:34:49.602Z,60.66
2022-11-23T09:37:16.086Z,60.51
2022-11-23T09:39:43.027Z,60.34
2022-11-23T09:42:20.620Z,58.98
2022-11-23T09:45:12.310Z,59.53
2022-11-23T09:48:04.479Z,64.34
2022-11-23T09:51:09.315Z,64.38
2022-11-23T09:53:44.001Z,63.26
2022-11-23T09:56:29.418Z,62.41
2022-11-23T09:58:58.914Z,61.60
2022-11-23T10:01:27.070Z,61.25
2022-11-23T10:03:53.565Z,60.62
2022-11-23T10:06:21.095Z,61.11
2022-11-23T10:08:54.992Z,61.16
2022-11-23T10:11:44.460Z,61.53
2022-11-23T10:14:32.932Z,61.43
2022-11-23T10:17:30.430Z,61.45
2022-11-23T10:20:35.615Z,61.70
2022-11-23T10:23:06.730Z,61.42
2022-11-23T10:25:48.543Z,62.14
2022-11-23T10:28:17.763Z,62.24
2022-11-23T10:31:09.717Z,62.41
2022-11-23T10:33:47.571Z,61.39
2022-11-23T10:36:15.740Z,61.71
2022-11-23T10:38:42.275Z,61.55
2022-11-23T10:41:10.903Z,61.28
2022-11-23T10:43:55.191Z,61.14
2022-11-23T10:46:34.363Z,60.93
2022-11-23T10:49:30.427Z,61.03
2022-11-23T10:52:05.015Z,60.54
2022-11-23T10:54:54.796Z,60.43
2022-11-23T11:01:01.289Z,60.53
2022-11-23T11:03:32.506Z,61.00
2022-11-23T11:06:09.525Z,61.74
2022-11-23T11:09:02.610Z,61.33
2022-11-23T11:11:35.230Z,60.87
2022-11-23T11:14:43.240Z,60.76
2022-11-23T11:17:24.981Z,61.02
2022-11-23T11:19:52.091Z,60.92
2022-11-23T11:22:29.554Z,61.29
2022-11-23T11:24:56.292Z,61.41
2022-11-23T11:27:23.544Z,61.68
2022-11-23T11:29:51.513Z,61.63
2022-11-23T11:32:33.916Z,61.77
2022-11-23T11:35:21.064Z,61.41
2022-11-23T11:37:49.767Z,60.49
2022-11-23T11:40:27.008Z,61.03
2022-11-23T11:43:01.967Z,61.04
2022-11-23T11:45:33.696Z,61.99
2022-11-23T11:48:21.732Z,61.97
2022-11-23T11:51:05.729Z,61.81
2022-11-23T11:53:59.430Z,61.85
2022-11-23T11:56:41.443Z,61.74
2022-11-23T11:59:33.251Z,61.77
2022-11-23T12:02:29.183Z,61.74
2022-11-23T12:05:13.852Z,61.52
2022-11-23T12:08:18.015Z,61.61
2022-11-23T12:10:52.872Z,61.15
2022-11-23T12:13:23.142Z,61.74
2022-11-23T12:16:27.437Z,61.34
2022-11-23T12:19:20.289Z,60.95
2022-11-23T12:22:31.026Z,60.80
2022-11-23T12:25:33.885Z,61.07
2022-11-23T12:28:32.480Z,61.01
2022-11-23T12:31:48.565Z,61.75
2022-11-23T12:34:48.882Z,61.62
2022-11-23T12:37:28.491Z,62.20
2022-11-23T12:40:21.101Z,62.71
2022-11-23T12:42:49.862Z,62.74
2022-11-23T12:45:31.821Z,62.49
2022-11-23T12:48:28.610Z,62.19
2022-11-23T12:51:09.264Z,61.84
2022-11-23T12:53:46.970Z,61.48
2022-11-23T12:56:26.259Z,61.48
2022-11-23T12:58:53.039Z,61.45
2022-11-23T13:01:41.280Z,61.59
2022-11-23T13:04:34.147Z,63.42
2022-11-23T13:07:28.901Z,63.89
2022-11-23T13:10:19.284Z,62.95
2022-11-23T13:13:12.467Z,63.29
2022-11-23T13:16:03.573Z,63.60
2022-11-23T13:18:46.027Z,63.87
2022-11-23T13:21:41.676Z,63.67
2022-11-23T13:24:34.006Z,63.57
2022-11-23T13:27:13.048Z,63.93
2022-11-23T13:29:48.869Z,63.98
2022-11-23T13:32:42.567Z,63.86
2022-11-23T13:35:18.347Z,64.50
2022-11-23T13:37:57.341Z,64.44
2022-11-23T13:40:31.560Z,64.59
2022-11-23T13:43:14.475Z,65.00
2022-11-23T13:45:41.163Z,64.74
2022-11-23T13:48:19.339Z,64.69
2022-11-23T13:50:50.895Z,64.09
2022-11-23T13:53:33.690Z,63.79
2022-11-23T13:56:37.005Z,63.94
2022-11-23T13:59:21.952Z,64.27
2022-11-23T14:02:07.045Z,64.30
2022-11-23T14:04:36.509Z,64.01
2022-11-23T14:07:06.375Z,64.20
2022-11-23T14:09:51.219Z,64.21
2022-11-23T14:12:52.239Z,64.08
2022-11-23T14:15:28.339Z,64.35
2022-11-23T14:18:20.154Z,64.95
2022-11-23T14:21:11.029Z,64.86
2022-11-23T14:24:05.641Z,64.16
2022-11-23T14:26:48.795Z,63.39
2022-11-23T14:29:55.624Z,63.20
2022-11-23T14:33:42.384Z,63.42
2022-11-23T14:36:19.897Z,63.87
2022-11-23T14:39:11.657Z,63.51
2022-11-23T14:41:40.682Z,63.04
2022-11-23T14:44:10.372Z,63.68
2022-11-23T14:46:36.995Z,64.32
2022-11-23T14:49:06.788Z,63.93
2022-11-23T14:51:34.162Z,63.78
2022-11-23T14:54:02.347Z,63.72
2022-11-23T14:56:40.473Z,63.82
2022-11-23T14:59:09.676Z,63.75
2022-11-23T15:01:36.181Z,63.55
2022-11-23T15:04:20.980Z,62.87
2022-11-23T15:06:47.569Z,62.77
2022-11-23T15:09:41.266Z,62.73
2022-11-23T15:12:24.973Z,63.19
2022-11-23T15:14:53.928Z,63.12
2022-11-23T15:17:21.562Z,62.83
2022-11-23T15:19:59.321Z,62.28
2022-11-23T15:22:27.246Z,62.82
2022-11-23T15:24:54.084Z,63.10
2022-11-23T15:27:27.884Z,62.91
2022-11-23T15:29:59.079Z,62.93
2022-11-23T15:32:33.139Z,63.06
2022-11-23T15:35:06.381Z,63.32
2022-11-23T15:37:32.921Z,63.45
2022-11-23T15:39:59.659Z,63.49
2022-11-23T15:42:26.600Z,63.49
2022-11-23T15:44:55.733Z,63.48
2022-11-23T15:47:26.726Z,63.02
2022-11-23T15:50:02.725Z,63.17
2022-11-23T15:52:33.881Z,62.85
2022-11-23T15:55:09.351Z,62.48
2022-11-23T15:57:36.962Z,62.91
2022-11-23T16:00:04.989Z,62.68
2022-11-23T16:02:38.134Z,62.80
2022-11-23T16:05:14.454Z,62.88
2022-11-23T16:07:58.535Z,63.00
2022-11-23T16:10:30.384Z,63.33
2022-11-23T16:12:58.430Z,63.27
2022-11-23T16:15:37.993Z,63.36
2022-11-23T16:18:18.436Z,63.34
2022-11-23T16:20:47.936Z,63.10
2022-11-23T16:23:19.436Z,62.98
2022-11-23T16:25:52.983Z,62.84
2022-11-23T16:28:27.299Z,63.25
2022-11-23T16:30:53.982Z,63.17
2022-11-23T16:33:20.881Z,63.06
2022-11-23T16:35:47.843Z,62.73
2022-11-23T16:38:14.502Z,62.65
2022-11-23T16:40:42.018Z,62.77
2022-11-23T16:43:09.995Z,62.96
2022-11-23T16:45:38.730Z,62.82
2022-11-23T16:48:24.890Z,62.86
2022-11-23T16:50:55.710Z,62.44
2022-11-23T16:53:22.440Z,62.50
2022-11-23T16:55:52.763Z,62.23
2022-11-23T16:58:19.534Z,62.24
2022-11-23T17:00:48.328Z,62.28
2022-11-23T17:03:16.172Z,62.56
2022-11-23T17:05:44.457Z,62.79
2022-11-23T17:08:11.681Z,62.78
2022-11-23T17:10:39.140Z,62.89
2022-11-23T17:13:10.692Z,62.62
2022-11-23T17:15:37.525Z,62.89
2022-11-23T17:18:04.145Z,62.46
2022-11-23T17:20:30.694Z,62.32
2022-11-23T17:23:00.541Z,62.64
2022-11-23T17:25:27.047Z,62.59
2022-11-23T17:27:53.687Z,62.52
2022-11-23T17:30:21.448Z,62.58
2022-11-23T17:32:49.004Z,63.26
2022-11-23T17:35:16.359Z,63.05
2022-11-23T17:37:42.957Z,62.82
2022-11-23T17:40:17.707Z,63.03
2022-11-23T17:42:45.499Z,62.79
2022-11-23T17:45:12.337Z,62.85
2022-11-23T17:47:39.074Z,62.79
2022-11-23T17:50:06.951Z,62.45
2022-11-23T17:52:33.508Z,62.49
2022-11-23T17:55:00.117Z,62.41
2022-11-23T17:57:26.918Z,62.10
2022-11-23T17:59:53.785Z,62.72
2022-11-23T18:02:20.525Z,62.82
2022-11-23T18:04:47.197Z,62.96
2022-11-23T18:07:14.728Z,63.60
2022-11-23T18:09:42.027Z,63.38
2022-11-23T18:12:08.935Z,62.97
2022-11-23T18:14:35.716Z,63.09
2022-11-23T18:17:02.290Z,62.98
2022-11-23T18:19:28.982Z,62.99
2022-11-23T18:21:55.564Z,62.75
2022-11-23T18:24:22.201Z,62.82
2022-11-23T18:26:48.782Z,63.22
2022-11-23T18:29:17.328Z,62.77
2022-11-23T18:31:44.378Z,62.69
2022-11-23T18:34:11.001Z,63.01
2022-11-23T18:36:37.641Z,62.90
2022-11-23T18:39:04.359Z,62.68
2022-11-23T18:41:30.910Z,63.20
2022-11-23T18:43:57.447Z,63.47
2022-11-23T18:46:24.091Z,63.68
2022-11-23T18:48:50.925Z,63.31
2022-11-23T18:51:17.869Z,63.01
2022-11-23T18:53:46.843Z,62.79
2022-11-23T18:56:13.511Z,62.35
2022-11-23T18:58:41.990Z,62.04
2022-11-23T19:01:12.319Z,61.66
2022-11-23T19:03:40.812Z,62.02
2022-11-23T19:06:08.072Z,62.05
2022-11-23T19:08:42.553Z,61.89
2022-11-23T19:11:18.667Z,61.41
2022-11-23T19:13:49.447Z,61.08
2022-11-23T19:16:25.219Z,61.25
2022-11-23T19:18:57.360Z,61.42
2022-11-23T19:21:26.346Z,61.67
2022-11-23T19:23:54.218Z,61.79
2022-11-23T19:26:20.971Z,61.63
2022-11-23T19:28:47.695Z,61.15
2022-11-23T19:31:19.584Z,62.31
2022-11-23T19:33:47.525Z,62.32
2022-11-23T19:36:17.023Z,62.12
2022-11-23T19:38:43.971Z,62.05
2022-11-23T19:41:10.611Z,61.86
2022-11-23T19:43:37.283Z,61.12
2022-11-23T19:46:05.763Z,61.08
2022-11-23T19:48:33.178Z,60.95
2022-11-23T19:51:02.582Z,61.51
2022-11-23T19:53:31.074Z,61.25
2022-11-23T19:56:18.708Z,60.58
2022-11-23T19:58:45.531Z,60.89
2022-11-23T20:01:14.365Z,60.81
2022-11-23T20:03:44.355Z,61.02
2022-11-23T20:06:18.730Z,61.34
2022-11-23T20:08:45.596Z,61.09
2022-11-23T20:11:15.001Z,61.13
2022-11-23T20:13:42.353Z,61.90
2022-11-23T20:16:12.575Z,61.69
2022-11-23T20:18:40.537Z,61.75
2022-11-23T20:21:14.191Z,61.86
2022-11-23T20:23:41.494Z,61.63
2022-11-23T20:26:08.981Z,61.62
2022-11-23T20:28:35.570Z,61.44
2022-11-23T20:31:06.390Z,61.58
2022-11-23T20:33:33.278Z,61.84
2022-11-23T20:36:10.549Z,61.58
2022-11-23T20:38:38.210Z,61.58
2022-11-23T20:41:28.293Z,60.85
2022-11-23T20:44:00.053Z,61.26
2022-11-23T20:49:16.045Z,61.19
2022-11-23T20:51:42.640Z,61.16
2022-11-23T20:54:09.433Z,61.22
2022-11-23T20:56:38.665Z,60.59
2022-11-23T20:59:05.133Z,60.18
2022-11-23T21:01:32.050Z,60.89
2022-11-23T21:03:59.156Z,60.72
2022-11-23T21:06:26.199Z,60.70
2022-11-23T21:08:52.773Z,60.98
2022-11-23T21:11:43.571Z,60.90
2022-11-23T21:14:18.284Z,60.46
2022-11-23T21:16:52.449Z,60.79
2022-11-23T21:19:21.063Z,60.39
2022-11-23T21:21:48.312Z,60.74
2022-11-23T21:24:15.052Z,61.37
2022-11-23T21:26:41.582Z,61.01
2022-11-23T21:29:10.474Z,60.85
2022-11-23T21:31:42.332Z,60.64
2022-11-23T21:34:17.025Z,60.67
2022-11-23T21:36:43.435Z,60.81
2022-11-23T21:39:10.674Z,59.96
2022-11-23T21:41:37.687Z,59.60
2022-11-23T21:44:05.244Z,59.32
2022-11-23T21:46:32.140Z,59.59
2022-11-23T21:48:59.078Z,63.08
2022-11-23T21:51:29.151Z,66.93
2022-11-23T21:53:58.234Z,66.62
2022-11-23T21:56:25.010Z,64.52
2022-11-23T21:58:52.028Z,63.04
2022-11-23T22:01:21.096Z,62.37
2022-11-23T22:03:59.332Z,62.05
2022-11-23T22:06:25.866Z,61.70
2022-11-23T22:08:54.261Z,61.88
2022-11-23T22:11:26.207Z,61.14
2022-11-23T22:13:55.751Z,60.58
2022-11-23T22:16:24.732Z,59.77
2022-11-23T22:18:55.551Z,60.08
2022-11-23T22:21:24.946Z,60.21
2022-11-23T22:23:51.786Z,59.98
2022-11-23T22:26:19.357Z,60.35
2022-11-23T22:28:48.810Z,60.30
2022-11-23T22:31:21.049Z,59.27
2022-11-23T22:33:48.464Z,57.98
2022-11-23T22:36:17.807Z,59.49
2022-11-23T22:38:44.709Z,62.16
2022-11-23T22:41:13.392Z,67.71
2022-11-23T22:43:40.036Z,64.79
2022-11-23T22:46:14.904Z,61.91
2022-11-23T22:48:43.160Z,61.50
2022-11-23T22:51:12.494Z,61.42
2022-11-23T22:53:44.255Z,61.88
2022-11-23T22:56:14.342Z,61.66
2022-11-23T22:58:41.119Z,61.41
2022-11-23T23:01:19.658Z,60.61
2022-11-23T23:03:47.012Z,60.93
2022-11-23T23:06:19.181Z,61.26
2022-11-23T23:08:46.330Z,60.89
2022-11-23T23:11:13.785Z,60.27
2022-11-23T23:13:41.347Z,60.36
2022-11-23T23:16:11.174Z,60.19
2022-11-23T23:18:38.406Z,59.85
2022-11-23T23:21:10.625Z,60.15
2022-11-23T23:23:38.344Z,60.54
2022-11-23T23:26:05.385Z,60.86
2022-11-23T23:28:32.122Z,60.64
2022-11-23T23:31:10.333Z,60.42
2022-11-23T23:33:37.173Z,59.99
2022-11-23T23:36:09.582Z,59.94
2022-11-23T23:38:36.794Z,59.74
2022-11-23T23:41:04.768Z,59.83
2022-11-23T23:43:31.605Z,59.70
2022-11-23T23:45:59.482Z,59.99
2022-11-23T23:48:36.654Z,60.01
2022-11-23T23:51:08.307Z,58.48
2022-11-23T23:53:35.764Z,59.20
2022-11-23T23:56:05.156Z,65.24
2022-11-23T23:58:31.802Z,65.36
